Flugwetter

METAR EDDW
2021/04/16 08:20 EDDW 160820Z 01008KT CAVOK 08/00 Q1028 NOSIG
TAF EDDW
2021/04/16 06:27 TAF EDDW 160500Z 1606/1706 32004KT CAVOK BECMG 1607/1609 02010KT BECMG 1618/1620 35004KT
METAR EDDH
2021/04/16 08:20 EDDH 160820Z 03010KT 360V060 CAVOK 08/M01 Q1028 NOSIG
TAF EDDH
2021/04/16 06:27 TAF EDDH 160500Z 1606/1712 32004KT CAVOK BECMG 1606/1608 02010KT BECMG 1617/1619 34004KT BECMG 1707/1709 01009KT
METAR VRMM
2021/04/16 08:00 VRMM 160800Z 27011KT 9999 FEW017 FEW018CB SCT110 BKN260 30/25 Q1010 CB E TEMPO 5000 TSRA
TAF VRMM
2021/04/16 06:27 TAF VRMM 160500Z 1606/1712 24009KT 9999 FEW017TCU TEMPO 1606/1612 4000 TSRA SCT017CB

Quelle:

Bereitgestellt von den Servern der NOAA tgftp.nws.noaa.gov
Alle Angaben ohne Gewähr